Observations for BARCELONA AIRPORT, Spain (LEBL)

LEBL 221430Z 10007KT 070V130 9999 BKN046 21/14 Q1021 NOSIG  
LEBL 221400Z 10009KT 9999 SCT048 21/15 Q1021 NOSIG  
LEBL 221330Z 10010KT 9999 FEW040 21/14 Q1021 NOSIG  
LEBL 221300Z 10011KT 9999 FEW025 21/14 Q1021 NOSIG  
LEBL 221230Z 10008KT 060V140 9999 FEW025 21/14 Q1021 NOSIG  
LEBL 221200Z 10008KT 070V130 9999 FEW025 22/13 Q1021 NOSIG  
LEBL 221130Z 08010KT 9999 FEW025 23/11 Q1021 NOSIG  
LEBL 221100Z 07011KT 040V100 CAVOK 22/12 Q1022 NOSIG
LEBL 221030Z 07009KT 040V100 CAVOK 21/12 Q1021 NOSIG
LEBL 221000Z 05009KT 020V080 CAVOK 22/12 Q1021 NOSIG
LEBL 220930Z 05007KT 010V080 CAVOK 20/14 Q1021 NOSIG
LEBL 220900Z 33005KT 300V360 CAVOK 20/14 Q1021 NOSIG
LEBL 220830Z 33005KT 310V010 CAVOK 19/14 Q1021 NOSIG
LEBL 220800Z 32005KT CAVOK 18/14 Q1020 NOSIG
LEBL 220730Z 33006KT 280V010 CAVOK 17/15 Q1020 NOSIG
LEBL 220700Z 32008G19KT 250V350 CAVOK 16/14 Q1020 NOSIG 
LEBL 220630Z 33007KT 290V350 9999 FEW018 16/14 Q1019 NOSIG  
LEBL 220600Z 33006KT 290V360 9999 FEW018 16/14 Q1019 NOSIG  
LEBL 220530Z 32006KT 280V350 9999 FEW018 17/14 Q1019 NOSIG  
LEBL 220500Z 35005KT CAVOK 17/15 Q1019 NOSIG
LEBL 220430Z 35004KT CAVOK 17/15 Q1019 NOSIG
LEBL 220400Z 32005KT CAVOK 18/15 Q1018 NOSIG
LEBL 220330Z 35007KT 320V020 CAVOK 17/15 Q1018 NOSIG
LEBL 220300Z 32009KT CAVOK 17/15 Q1017 NOSIG
LEBL 220230Z 31008KT CAVOK 18/15 Q1017 NOSIG
LEBL 220200Z 30007KT CAVOK 18/15 Q1017 NOSIG
LEBL 220130Z 31008KT 290V350 CAVOK 18/15 Q1017 NOSIG
LEBL 220100Z 31007KT CAVOK 18/15 Q1017 NOSIG
LEBL 220030Z 33008KT CAVOK 18/15 Q1018 NOSIG
LEBL 220000Z 32010KT CAVOK 18/15 Q1018 NOSIG
LEBL 212330Z 32008KT CAVOK 18/16 Q1018 NOSIG
LEBL 212300Z 33006KT CAVOK 17/15 Q1018 NOSIG
LEBL 212230Z 31006KT CAVOK 17/15 Q1018 NOSIG
LEBL 212200Z 29005KT CAVOK 17/15 Q1018 NOSIG
LEBL 212130Z 28004KT 9000 FEW040 18/16 Q1018 NOSIG  
LEBL 212100Z 28004KT 260V330 9000 FEW040 18/16 Q1018 NOSIG  
LEBL 212030Z 28004KT 230V350 CAVOK 18/16 Q1018 NOSIG
LEBL 212000Z 25007KT CAVOK 18/17 Q1018 NOSIG
LEBL 211930Z 25007KT CAVOK 19/17 Q1017 NOSIG
LEBL 211900Z 24009KT CAVOK 19/17 Q1018 NOSIG
LEBL 211830Z 23010KT CAVOK 19/17 Q1017 NOSIG
LEBL 211800Z 23008KT CAVOK 19/17 Q1017 NOSIG
LEBL 211730Z 24011KT CAVOK 20/16 Q1017 NOSIG
LEBL 211700Z 23010KT CAVOK 20/15 Q1017 NOSIG
LEBL 211630Z 23011KT CAVOK 21/15 Q1017 NOSIG
LEBL 211600Z 23012KT CAVOK 21/16 Q1018 NOSIG
LEBL 211530Z 22013KT CAVOK 22/15 Q1018 NOSIG
LEBL 211500Z 22013KT CAVOK 22/14 Q1018 NOSIG
LEBL 211430Z 22012KT 9999 FEW040 22/15 Q1019 NOSIG  
LEBL 211400Z 22012KT 9999 FEW040 22/14 Q1019 NOSIG